Main page
METAR-TAF:

METAR-TAF

Airports :

Mary International Airport

Mary, Turkmenistan

latitude: 37-36-24N, longitude: 061-54-05E, elevation: 222 m

Current weather observation

The report was made 27 minutes ago, at 03:00 UTC
Wind 4 kt from the South
Temperature 3°C
Humidity 44%
Pressure 1018 hPa
Visibility 10 km or more
no clouds below 1500 m and no cumulonimbus

METAR: UTAM 010300Z 17004KT CAVOK 03/M08 Q1018 R88/CLRD70 NOSIG

Time: 08:27 (03:27 UTC)

Forecast

The report was made 4 hours and 57 minutes ago, at 22:30 UTC
Forecast valid from 01 at 00 UTC to 01 at 24 UTC
Wind 14 kt from the Southeast
Visibility: 6000 m
Temporary
from 01 at 00 UTC to 01 at 04 UTC
Wind 12 kt from the South/Southeast
Visibility: 2000 m
mist, smoke
Temporary
from 01 at 05 UTC to 01 at 12 UTC
Wind 16 kt from the South/Southwest with gusts up to 26 kt
Visibility: 3000 m
Scattered clouds at a height of 3000 ft
Low drifting dust

TAF: UTAM 282230Z 0100/0124 13014KT 6000 NSC TEMPO 0100/0104 16012KT 2000 BR FU TEMPO 0105/0112 20016G26KT 3000 DRDU SCT030

Weather observations and forecasts of more than 4000 airports (METAR and TAF reports).

The available stations are represented by yellow and red dots on the map.

Hover mouse over dot to see the name of the station.

Then click to see weather observations and forecasts.

To change the map : click on the green buttons with a black cross to zoom in, on the green button with a dash to zoom out, or on the green arrows for adjacent maps.


METAR-TAF: